Time;durP1;ratioP1;P1;durP2;ratioP2;P2;SDS_P1;SDS_P2;PMS_P1;PMS_P2;Temp;Humidity;BMP_temperature;BMP_pressure;BME280_temperature;BME280_humidity;BME280_pressure;Samples;Min_cycle;Max_cycle;Signal;HPM_P1;HPM_P2
2022/05/18 00:00:31;;;;;;;11.10;6.70;;;;;;;12.56;100.00;97000.41;5085548;28;20463;-74
2022/05/18 00:03:04;;;;;;;13.33;6.07;;;;;;;12.64;100.00;97009.38;5090436;28;20793;-75
2022/05/18 00:05:33;;;;;;;14.40;5.43;;;;;;;12.21;100.00;96975.16;5073527;28;20436;-74
2022/05/18 00:07:59;;;;;;;9.93;6.73;;;;;;;12.24;100.00;96999.16;5053595;28;20866;-74
2022/05/18 00:10:27;;;;;;;17.60;6.30;;;;;;;11.65;100.00;96959.31;5083028;28;20936;-75
2022/05/18 00:12:54;;;;;;;13.90;6.53;;;;;;;11.92;100.00;96994.50;5069889;28;20832;-74
2022/05/18 00:15:23;;;;;;;20.70;6.40;;;;;;;11.71;100.00;96952.75;5075436;28;20494;-74
2022/05/18 00:17:51;;;;;;;15.77;7.10;;;;;;;11.92;100.00;96954.75;5053540;28;20435;-74
2022/05/18 00:20:18;;;;;;;16.93;6.60;;;;;;;11.59;100.00;96915.56;5070232;28;20472;-74
2022/05/18 00:22:49;;;;;;;21.30;6.47;;;;;;;12.02;100.00;96980.84;5069922;28;20488;-75
2022/05/18 00:25:17;;;;;;;21.97;6.90;;;;;;;12.10;100.00;96998.59;5086977;28;20439;-74
2022/05/18 00:27:45;;;;;;;15.40;6.93;;;;;;;12.40;100.00;97004.69;5069783;28;20468;-74
2022/05/18 00:30:14;;;;;;;13.80;7.07;;;;;;;12.19;100.00;96985.31;5069684;28;20432;-74
2022/05/18 00:32:41;;;;;;;12.60;7.07;;;;;;;12.00;100.00;96967.16;5072672;28;20556;-74
2022/05/18 00:35:09;;;;;;;11.40;6.03;;;;;;;12.12;100.00;96985.81;5073216;28;20440;-74
2022/05/18 00:37:36;;;;;;;11.17;6.17;;;;;;;12.32;100.00;97024.09;5086586;28;20457;-74
2022/05/18 00:40:04;;;;;;;11.30;6.50;;;;;;;11.95;100.00;96988.53;5069661;28;20876;-74
2022/05/18 00:42:30;;;;;;;11.80;6.53;;;;;;;11.73;100.00;96992.94;5069552;28;20452;-74
2022/05/18 00:44:57;;;;;;;11.97;7.87;;;;;;;11.77;100.00;97001.06;5070963;28;20441;-74
2022/05/18 00:47:24;;;;;;;13.57;7.50;;;;;;;12.10;100.00;97030.41;5052966;28;20594;-75
2022/05/18 00:50:17;;;;;;;9.37;6.50;;;;;;;12.09;100.00;97012.97;5080805;28;20436;-75
2022/05/18 00:53:21;;;;;;;7.53;6.80;;;;;;;11.96;100.00;97029.84;5044806;28;20464;-74
2022/05/18 00:55:54;;;;;;;8.03;7.27;;;;;;;12.00;100.00;97031.53;5026315;28;21050;-74
2022/05/18 00:58:38;;;;;;;9.40;7.30;;;;;;;11.86;100.00;97007.13;5069710;28;20427;-74
2022/05/18 01:01:04;;;;;;;6.50;6.00;;;;;;;12.01;100.00;97037.63;5073001;28;20473;-74
2022/05/18 01:03:36;;;;;;;9.67;7.57;;;;;;;11.69;100.00;96978.00;5092798;28;20458;-74
2022/05/18 01:06:21;;;;;;;7.40;6.70;;;;;;;11.84;100.00;96994.19;5093659;28;20451;-74
2022/05/18 01:08:59;;;;;;;6.43;5.73;;;;;;;12.05;100.00;97039.34;5094902;28;20557;-74
2022/05/18 01:11:26;;;;;;;7.40;6.70;;;;;;;11.86;100.00;97032.84;5093390;28;20478;-74
2022/05/18 01:13:53;;;;;;;10.03;7.20;;;;;;;11.55;100.00;97023.22;5093399;28;20861;-74
2022/05/18 01:16:21;;;;;;;9.30;5.97;;;;;;;11.43;100.00;97031.81;5080448;28;20436;-74
2022/05/18 01:18:50;;;;;;;7.37;6.67;;;;;;;11.19;100.00;97011.13;5093328;28;20444;-74
2022/05/18 01:21:17;;;;;;;14.93;8.07;;;;;;;11.25;100.00;96995.88;5076443;28;20966;-74
2022/05/18 01:23:59;;;;;;;8.03;6.93;;;;;;;11.62;100.00;97036.78;5076612;28;20522;-75
2022/05/18 01:26:45;;;;;;;8.93;6.93;;;;;;;11.72;100.00;97039.06;5090667;28;20447;-74
2022/05/18 01:29:16;;;;;;;11.13;7.40;;;;;;;11.77;100.00;97035.50;5089785;28;20463;-74
2022/05/18 01:31:58;;;;;;;9.70;7.40;;;;;;;11.76;100.00;97028.66;5072877;28;20444;-74
2022/05/18 01:34:31;;;;;;;8.30;6.27;;;;;;;11.61;100.00;97024.59;5072892;28;20483;-74
2022/05/18 01:36:58;;;;;;;8.07;6.87;;;;;;;11.84;100.00;97044.53;5089778;28;21054;-75
2022/05/18 01:39:37;;;;;;;7.90;7.30;;;;;;;11.91;100.00;97049.38;5075827;28;20435;-75
2022/05/18 01:42:42;;;;;;;8.20;7.47;;;;;;;11.82;100.00;97048.59;5092942;28;20494;-75
2022/05/18 01:45:09;;;;;;;7.87;7.17;;;;;;;11.66;100.00;97043.00;5082459;28;20436;-75
2022/05/18 01:47:38;;;;;;;7.63;7.03;;;;;;;11.60;100.00;97019.63;5077431;28;20487;-75
2022/05/18 01:50:09;;;;;;;7.77;7.07;;;;;;;11.64;100.00;97037.25;5066290;28;20428;-74
2022/05/18 01:52:36;;;;;;;7.27;6.60;;;;;;;11.57;100.00;97041.44;5076801;28;21023;-74
2022/05/18 01:55:05;;;;;;;8.60;6.90;;;;;;;11.86;100.00;97035.47;5077544;28;20432;-75
2022/05/18 01:57:33;;;;;;;9.67;6.70;;;;;;;11.91;100.00;97040.63;5075383;28;20440;-75
2022/05/18 02:00:01;;;;;;;7.97;7.17;;;;;;;11.44;100.00;97043.19;5091790;28;20465;-74
2022/05/18 02:02:38;;;;;;;9.10;6.73;;;;;;;11.60;100.00;97012.47;5097452;28;20427;-75
2022/05/18 02:05:06;;;;;;;7.40;6.80;;;;;;;11.56;100.00;97011.53;5065080;28;20428;-74
2022/05/18 02:07:32;;;;;;;11.07;7.53;;;;;;;11.25;100.00;97017.81;5077984;28;21019;-76
2022/05/18 02:09:59;;;;;;;7.70;6.90;;;;;;;11.46;100.00;97059.53;5086867;28;20439;-74
2022/05/18 02:12:26;;;;;;;14.60;6.73;;;;;;;11.52;100.00;97051.13;5080270;28;20798;-74
2022/05/18 02:14:53;;;;;;;12.43;8.70;;;;;;;11.49;100.00;97051.75;5096017;28;20455;-74
2022/05/18 02:17:19;;;;;;;9.07;7.20;;;;;;;11.68;100.00;97018.84;5092899;28;20458;-75
2022/05/18 02:19:46;;;;;;;7.70;7.10;;;;;;;11.90;100.00;97052.31;5080200;28;20467;-74
2022/05/18 02:22:13;;;;;;;11.00;6.60;;;;;;;11.66;100.00;97019.16;5065851;28;20506;-74
2022/05/18 02:24:39;;;;;;;7.67;6.87;;;;;;;11.40;100.00;97023.72;5083842;28;20423;-74
2022/05/18 02:27:06;;;;;;;7.60;6.90;;;;;;;11.46;100.00;97004.69;5096286;28;20431;-75
2022/05/18 02:29:35;;;;;;;7.40;6.70;;;;;;;11.81;100.00;97045.16;5092257;28;20454;-74
2022/05/18 02:32:02;;;;;;;11.40;8.57;;;;;;;11.91;100.00;97041.41;5074523;28;21013;-75
2022/05/18 02:34:29;;;;;;;8.00;7.30;;;;;;;11.92;100.00;97040.31;5072765;28;20429;-74
2022/05/18 02:36:56;;;;;;;8.50;7.47;;;;;;;11.75;100.00;97027.88;5052533;28;21052;-75
2022/05/18 02:39:23;;;;;;;9.50;8.60;;;;;;;11.77;100.00;97028.31;5061762;28;20438;-74
2022/05/18 02:41:50;;;;;;;10.50;9.67;;;;;;;11.72;100.00;97049.66;5092958;28;21002;-75
2022/05/18 02:44:17;;;;;;;12.00;9.00;;;;;;;11.82;100.00;97044.06;5078170;28;20443;-74
2022/05/18 02:46:44;;;;;;;11.13;9.80;;;;;;;12.03;100.00;97040.75;5072059;28;20936;-75
2022/05/18 02:49:11;;;;;;;9.77;8.80;;;;;;;11.81;100.00;97013.38;5086854;28;20995;-74
2022/05/18 02:51:39;;;;;;;11.17;10.20;;;;;;;11.91;100.00;97044.06;5075160;28;20444;-74
2022/05/18 02:56:05;;;;;;;9.80;8.80;;;;;;;11.91;100.00;97038.75;5075286;28;20522;-74
2022/05/18 02:57:00;;;;;;;11.40;10.40;;;;;;;11.76;100.00;97018.81;5079446;28;20436;-74
2022/05/18 02:59:27;;;;;;;10.53;9.63;;;;;;;11.97;100.00;97050.72;5092570;28;20455;-75
2022/05/18 03:01:53;;;;;;;15.33;10.53;;;;;;;11.91;100.00;97064.47;5098775;28;20495;-74
2022/05/18 03:04:21;;;;;;;11.13;10.13;;;;;;;11.94;100.00;97066.50;5074580;28;20429;-74
2022/05/18 03:06:48;;;;;;;11.20;10.10;;;;;;;12.11;100.00;97059.25;5080928;28;20459;-74
2022/05/18 03:09:15;;;;;;;13.63;11.97;;;;;;;11.95;100.00;97034.38;5095499;28;20456;-74
2022/05/18 03:11:41;;;;;;;13.03;9.93;;;;;;;12.05;100.00;97067.72;5076377;28;20483;-74
2022/05/18 03:14:08;;;;;;;11.30;10.23;;;;;;;12.03;100.00;97040.75;5087490;28;21008;-74
2022/05/18 03:16:37;;;;;;;12.20;11.10;;;;;;;12.15;100.00;97070.00;5092645;28;20465;-75
2022/05/18 03:19:04;;;;;;;12.07;11.07;;;;;;;12.10;100.00;97078.13;5071145;28;20441;-75
2022/05/18 03:24:16;;;;;;;12.17;11.07;;;;;;;12.05;100.00;97087.03;5073403;28;20441;-75
2022/05/18 03:26:44;;;;;;;11.70;10.70;;;;;;;12.09;100.00;97093.25;5092110;28;20998;-74
2022/05/18 03:29:11;;;;;;;12.03;10.70;;;;;;;12.02;100.00;97074.44;5093429;28;20545;-75
2022/05/18 03:31:38;;;;;;;11.87;10.87;;;;;;;11.94;100.00;97067.28;5085979;28;20551;-76
2022/05/18 03:34:05;;;;;;;12.60;11.30;;;;;;;12.26;100.00;97095.06;5072077;28;20436;-74
2022/05/18 03:36:32;;;;;;;11.83;10.83;;;;;;;12.16;100.00;97065.50;5094271;28;20456;-75
2022/05/18 03:38:59;;;;;;;11.87;10.63;;;;;;;12.29;100.00;97078.56;5092653;28;20935;-75
2022/05/18 03:41:26;;;;;;;12.10;10.70;;;;;;;12.31;100.00;97073.69;5086472;28;20539;-75
2022/05/18 03:43:53;;;;;;;12.17;10.97;;;;;;;12.53;100.00;97111.66;5084623;28;20562;-74
2022/05/18 03:46:20;;;;;;;10.30;9.40;;;;;;;12.55;100.00;97106.81;5068253;28;20531;-74
2022/05/18 03:48:47;;;;;;;10.07;9.10;;;;;;;12.54;100.00;97106.03;5076570;28;20481;-74
2022/05/18 03:51:16;;;;;;;11.70;10.37;;;;;;;12.61;100.00;97113.50;5097353;28;20501;-75
2022/05/18 03:53:43;;;;;;;11.20;10.30;;;;;;;12.53;100.00;97093.09;5090259;28;20475;-75
2022/05/18 03:56:10;;;;;;;13.27;11.70;;;;;;;12.63;100.00;97108.66;5081550;28;20463;-74
2022/05/18 03:58:37;;;;;;;11.70;10.70;;;;;;;12.57;100.00;97102.00;5065543;28;20478;-74
2022/05/18 04:01:08;;;;;;;12.20;11.10;;;;;;;12.59;100.00;97128.97;5077017;28;20506;-74
2022/05/18 04:03:38;;;;;;;12.67;11.47;;;;;;;12.52;100.00;97120.72;5077000;28;20452;-74
2022/05/18 04:06:05;;;;;;;13.63;11.93;;;;;;;12.48;100.00;97101.25;5096541;28;20453;-75
2022/05/18 04:08:32;;;;;;;14.20;12.80;;;;;;;12.63;100.00;97119.28;5078652;28;20494;-74
2022/05/18 04:10:59;;;;;;;13.43;12.23;;;;;;;12.52;100.00;97102.94;5062934;28;20455;-74
2022/05/18 04:13:26;;;;;;;13.87;12.50;;;;;;;12.46;100.00;97085.66;5088208;28;20507;-74
2022/05/18 04:15:54;;;;;;;13.00;11.70;;;;;;;12.74;100.00;97133.72;5087584;28;20526;-74
2022/05/18 04:18:22;;;;;;;12.30;11.07;;;;;;;12.79;100.00;97117.63;5087866;28;20459;-75
2022/05/18 04:20:50;;;;;;;16.70;14.70;;;;;;;12.81;100.00;97126.03;5070131;28;20441;-75
2022/05/18 04:23:17;;;;;;;14.80;13.23;;;;;;;12.76;100.00;97105.00;5074742;28;20522;-74
2022/05/18 04:25:45;;;;;;;13.47;12.17;;;;;;;12.86;100.00;97131.19;5073490;28;20535;-74
2022/05/18 04:28:14;;;;;;;13.90;12.70;;;;;;;12.85;100.00;97140.25;5073040;28;20487;-74
2022/05/18 04:30:43;;;;;;;14.57;13.40;;;;;;;12.76;100.00;97106.88;5069920;28;20463;-74
2022/05/18 04:33:18;;;;;;;15.03;13.27;;;;;;;12.97;100.00;97143.00;5069973;28;20440;-75
2022/05/18 04:35:46;;;;;;;14.17;12.80;;;;;;;12.86;100.00;97120.56;5086742;28;20420;-74
2022/05/18 04:38:13;;;;;;;14.03;12.73;;;;;;;13.10;100.00;97124.50;5069634;28;20955;-74
2022/05/18 04:40:45;;;;;;;17.33;12.63;;;;;;;13.21;100.00;97130.97;5070419;28;20436;-74
2022/05/18 04:43:11;;;;;;;14.50;13.00;;;;;;;13.46;100.00;97105.34;5070106;28;20960;-75
2022/05/18 04:45:44;;;;;;;15.80;14.20;;;;;;;13.36;100.00;97119.81;5069890;28;20437;-74
2022/05/18 04:48:17;;;;;;;14.23;12.07;;;;;;;13.63;100.00;97141.63;5077546;28;20466;-74
2022/05/18 04:50:45;;;;;;;15.20;13.60;;;;;;;13.24;100.00;97125.81;5090094;28;20493;-74
2022/05/18 04:53:12;;;;;;;15.17;13.87;;;;;;;13.17;100.00;97159.25;5073125;28;20481;-74
2022/05/18 04:55:39;;;;;;;17.23;15.73;;;;;;;13.07;100.00;97154.31;5074074;28;20482;-74
2022/05/18 04:58:06;;;;;;;16.93;15.30;;;;;;;12.98;100.00;97163.13;5069679;28;20464;-75
2022/05/18 05:00:33;;;;;;;17.43;15.83;;;;;;;13.04;100.00;97163.72;5069682;28;20452;-75
2022/05/18 05:03:00;;;;;;;17.73;15.93;;;;;;;12.64;100.00;97099.59;5080422;28;20951;-74
2022/05/18 05:05:27;;;;;;;16.80;15.10;;;;;;;12.83;100.00;97134.47;5073137;28;20447;-74
2022/05/18 05:07:54;;;;;;;21.57;16.87;;;;;;;12.83;100.00;97097.31;5079915;28;20883;-77
2022/05/18 05:10:21;;;;;;;17.47;15.83;;;;;;;13.47;100.00;97165.34;5068862;28;20471;-76
2022/05/18 05:12:48;;;;;;;16.60;15.00;;;;;;;13.56;100.00;97161.53;5070933;28;20499;-76
2022/05/18 05:15:15;;;;;;;19.10;17.20;;;;;;;13.31;100.00;97133.25;5078254;28;20474;-76
2022/05/18 05:17:42;;;;;;;18.77;16.97;;;;;;;13.44;100.00;97137.53;5070639;28;20444;-76
2022/05/18 05:20:10;;;;;;;17.57;15.80;;;;;;;13.87;100.00;97177.06;5070088;28;20519;-76
2022/05/18 05:22:36;;;;;;;16.87;15.30;;;;;;;13.88;100.00;97146.69;5080964;28;20451;-76
2022/05/18 05:25:03;;;;;;;16.60;15.30;;;;;;;13.96;100.00;97157.59;5089343;28;20529;-76
2022/05/18 05:27:30;;;;;;;18.80;16.60;;;;;;;14.10;100.00;97156.19;5072711;28;20530;-76
2022/05/18 05:29:57;;;;;;;17.47;15.87;;;;;;;14.46;100.00;97195.47;5084218;28;20499;-75
2022/05/18 05:32:25;;;;;;;16.17;14.77;;;;;;;14.39;100.00;97189.06;5069055;28;20470;-75
2022/05/18 05:34:52;;;;;;;18.00;16.20;;;;;;;14.59;100.00;97203.47;5052670;28;20519;-75
2022/05/18 05:37:19;;;;;;;16.67;15.17;;;;;;;14.38;100.00;97198.16;5069113;28;20526;-75
2022/05/18 05:39:46;;;;;;;18.77;16.97;;;;;;;14.16;100.00;97173.53;5069117;28;20437;-75
2022/05/18 05:42:13;;;;;;;17.57;15.77;;;;;;;14.28;100.00;97196.69;5081716;28;20456;-75
2022/05/18 05:44:40;;;;;;;17.30;15.77;;;;;;;14.34;100.00;97199.94;5089385;28;20845;-75
2022/05/18 05:47:08;;;;;;;19.13;17.50;;;;;;;14.04;100.00;97146.88;5089315;28;20523;-75
2022/05/18 05:49:34;;;;;;;17.70;16.00;;;;;;;14.39;100.00;97207.72;5092086;28;20572;-75
2022/05/18 05:52:01;;;;;;;17.50;16.00;;;;;;;14.27;100.00;97187.16;5080628;28;20451;-75
2022/05/18 05:54:28;;;;;;;18.77;17.03;;;;;;;14.45;100.00;97201.88;5072346;28;20868;-75
2022/05/18 05:56:55;;;;;;;19.17;17.30;;;;;;;14.59;100.00;97206.91;5052409;28;20933;-75
2022/05/18 05:59:22;;;;;;;16.90;15.50;;;;;;;14.62;100.00;97190.28;5052359;28;20432;-75
2022/05/18 06:01:49;;;;;;;19.37;17.50;;;;;;;14.75;100.00;97185.75;5065737;28;20470;-75
2022/05/18 06:04:17;;;;;;;16.47;14.97;;;;;;;15.10;100.00;97206.63;5072409;28;20515;-75
2022/05/18 06:06:44;;;;;;;16.87;15.23;;;;;;;15.13;100.00;97185.41;5072105;28;20448;-75
2022/05/18 06:09:11;;;;;;;16.23;14.67;;;;;;;15.29;100.00;97186.28;5072133;28;20928;-75
2022/05/18 06:11:38;;;;;;;17.97;16.20;;;;;;;15.74;100.00;97209.31;5086226;28;20514;-75
2022/05/18 06:14:05;;;;;;;16.57;15.27;;;;;;;15.84;100.00;97218.75;5093568;28;20438;-75
2022/05/18 06:16:32;;;;;;;17.20;15.60;;;;;;;15.56;100.00;97226.66;5079187;28;20428;-75
2022/05/18 06:18:59;;;;;;;18.33;16.60;;;;;;;15.78;100.00;97194.22;5079771;28;20503;-75
2022/05/18 06:21:27;;;;;;;17.13;15.50;;;;;;;15.69;100.00;97209.56;5077564;28;20455;-75
2022/05/18 06:23:54;;;;;;;17.63;16.13;;;;;;;15.65;100.00;97208.69;5071988;28;20920;-75
2022/05/18 06:26:21;;;;;;;15.93;14.53;;;;;;;15.97;100.00;97238.94;5085808;28;20424;-75
2022/05/18 06:28:49;;;;;;;17.00;15.33;;;;;;;15.92;100.00;97209.84;5071833;28;20455;-75
2022/05/18 06:31:16;;;;;;;16.87;15.37;;;;;;;16.09;100.00;97238.13;5057412;28;20455;-75
2022/05/18 06:33:43;;;;;;;16.63;15.03;;;;;;;15.85;100.00;97207.75;5066786;28;20436;-75
2022/05/18 06:36:10;;;;;;;16.93;15.40;;;;;;;15.85;100.00;97238.97;5071679;28;20941;-75
2022/05/18 06:38:37;;;;;;;15.83;14.30;;;;;;;15.62;100.00;97210.16;5071670;28;20435;-75
2022/05/18 06:41:22;;;;;;;16.23;14.43;;;;;;;15.84;100.00;97205.41;5071452;28;20457;-75
2022/05/18 06:43:55;;;;;;;14.57;13.07;;;;;;;16.57;100.00;97231.03;5071557;28;20952;-75
2022/05/18 06:46:23;;;;;;;14.97;13.63;;;;;;;16.56;100.00;97230.25;5071627;28;20535;-75
2022/05/18 06:48:50;;;;;;;19.50;13.73;;;;;;;17.12;100.00;97246.94;5072770;28;20464;-75
2022/05/18 06:51:23;;;;;;;14.20;13.00;;;;;;;17.02;100.00;97246.66;5071348;28;20495;-75
2022/05/18 06:53:54;;;;;;;15.10;13.63;;;;;;;17.11;100.00;97253.41;5055045;28;20445;-75
2022/05/18 06:56:23;;;;;;;15.97;14.30;;;;;;;17.39;100.00;97236.47;5054837;28;20475;-75
2022/05/18 06:58:51;;;;;;;14.87;13.67;;;;;;;17.57;100.00;97242.97;5071284;28;20468;-75
2022/05/18 07:01:19;;;;;;;14.63;13.17;;;;;;;17.88;100.00;97254.72;5072307;28;21039;-75
2022/05/18 07:03:47;;;;;;;15.10;13.80;;;;;;;18.02;100.00;97260.38;5070364;28;20449;-75
2022/05/18 07:06:16;;;;;;;14.47;13.13;;;;;;;18.00;100.00;97251.94;5091358;28;20440;-75
2022/05/18 07:08:42;;;;;;;14.63;13.40;;;;;;;17.33;100.00;97230.59;5057504;28;21114;-75
2022/05/18 07:11:09;;;;;;;14.47;13.27;;;;;;;17.52;100.00;97229.88;5065305;28;21003;-75
2022/05/18 07:13:38;;;;;;;16.50;13.70;;;;;;;17.33;100.00;97229.81;5073748;28;20998;-75
2022/05/18 07:16:05;;;;;;;16.40;15.00;;;;;;;17.66;100.00;97250.81;5079033;28;20974;-75
2022/05/18 07:18:33;;;;;;;14.27;12.97;;;;;;;17.21;100.00;97252.06;5072137;28;21013;-75
2022/05/18 07:21:03;;;;;;;12.83;11.70;;;;;;;17.29;100.00;97220.94;5070687;28;21004;-75
2022/05/18 07:23:31;;;;;;;14.63;13.27;;;;;;;17.32;100.00;97255.78;5071061;28;20436;-75
2022/05/18 07:25:59;;;;;;;13.77;12.57;;;;;;;17.20;100.00;97253.19;5070687;28;20455;-76
2022/05/18 07:28:27;;;;;;;13.50;12.33;;;;;;;17.42;100.00;97259.81;5071903;28;20966;-75
2022/05/18 07:30:54;;;;;;;14.80;13.17;;;;;;;17.18;100.00;97257.34;5070560;28;20461;-75
2022/05/18 07:33:24;;;;;;;15.07;13.57;;;;;;;17.71;100.00;97258.59;5064134;28;20434;-75
2022/05/18 07:35:53;;;;;;;14.17;12.80;;;;;;;17.92;100.00;97248.34;5064587;28;20493;-75
2022/05/18 07:38:22;;;;;;;13.13;11.93;;;;;;;18.29;100.00;97240.66;5090428;28;20459;-75
2022/05/18 07:41:10;;;;;;;14.93;12.40;;;;;;;18.66;100.00;97255.50;5090535;28;20451;-75
2022/05/18 07:43:37;;;;;;;14.83;13.43;;;;;;;17.91;100.00;97230.75;5090706;28;20504;-75
2022/05/18 07:46:05;;;;;;;15.03;13.80;;;;;;;18.16;100.00;97252.66;5073832;28;20466;-75
2022/05/18 07:48:32;;;;;;;14.67;13.37;;;;;;;18.45;100.00;97242.50;5081432;28;20458;-75
2022/05/18 07:50:59;;;;;;;16.10;14.60;;;;;;;17.96;100.00;97256.44;5070280;28;20463;-75
2022/05/18 07:53:25;;;;;;;13.57;12.37;;;;;;;18.16;100.00;97255.34;5087023;28;20491;-75
2022/05/18 07:55:52;;;;;;;14.43;13.23;;;;;;;18.85;100.00;97232.13;5070107;28;20533;-75
2022/05/18 07:58:20;;;;;;;14.97;13.57;;;;;;;18.97;100.00;97258.00;5070145;28;21017;-75
2022/05/18 08:00:48;;;;;;;14.97;13.60;;;;;;;19.37;100.00;97235.25;5069931;28;20991;-75
2022/05/18 08:03:15;;;;;;;13.70;12.60;;;;;;;19.94;100.00;97254.84;5082729;28;20518;-75
2022/05/18 08:05:45;;;;;;;12.30;11.20;;;;;;;20.34;100.00;97251.47;5090434;28;20471;-75
2022/05/18 08:08:18;;;;;;;11.83;10.83;;;;;;;19.89;100.00;97244.41;5060631;28;20474;-76
2022/05/18 08:16:18;;;;;;;11.03;10.13;;;;;;;20.89;100.00;97265.13;5083540;28;20892;-75
2022/05/18 08:18:46;;;;;;;11.40;10.53;;;;;;;20.40;100.00;97265.34;5054031;28;20436;-75
2022/05/18 08:21:13;;;;;;;10.13;9.40;;;;;;;20.36;100.00;97235.75;5065968;28;20971;-75
2022/05/18 08:23:40;;;;;;;12.10;10.30;;;;;;;20.63;100.00;97260.63;5085054;28;20519;-75
2022/05/18 08:26:07;;;;;;;10.60;9.60;;;;;;;20.37;100.00;97270.31;5069749;28;20818;-75
2022/05/18 08:28:34;;;;;;;18.93;11.47;;;;;;;20.34;100.00;97224.63;5076491;28;20477;-75
2022/05/18 08:31:01;;;;;;;9.07;8.37;;;;;;;20.62;100.00;97261.78;5089723;28;21092;-75
2022/05/18 08:33:31;;;;;;;9.00;8.17;;;;;;;20.45;100.00;97247.03;5073270;28;20501;-75
2022/05/18 08:36:04;;;;;;;10.10;9.20;;;;;;;20.03;100.00;97240.00;5089761;28;20435;-75
2022/05/18 08:38:31;;;;;;;8.00;7.40;;;;;;;20.23;100.00;97272.84;5073204;28;21226;-75
2022/05/18 08:41:17;;;;;;;8.97;8.30;;;;;;;20.19;100.00;97274.72;5055925;28;20456;-75
2022/05/18 08:43:47;;;;;;;10.17;9.37;;;;;;;20.31;100.00;97279.06;5069670;28;20964;-75
2022/05/18 08:46:47;;;;;;;9.30;8.70;;;;;;;21.16;100.00;97276.50;5070903;28;20860;-75
2022/05/18 08:49:45;;;;;;;9.37;8.57;;;;;;;21.35;100.00;97278.19;5069539;28;20469;-75
2022/05/18 08:52:36;;;;;;;9.23;8.43;;;;;;;21.08;100.00;97272.19;5069469;28;20800;-75
2022/05/18 08:55:12;;;;;;;8.23;7.43;;;;;;;21.15;100.00;97275.72;5069848;28;20532;-75
2022/05/18 08:57:46;;;;;;;9.47;8.77;;;;;;;21.15;99.80;97281.09;5075405;28;20441;-75
2022/05/18 09:00:13;;;;;;;9.70;8.90;;;;;;;21.97;100.00;97284.38;5073076;28;20939;-74
2022/05/18 09:02:41;;;;;;;9.17;8.47;;;;;;;21.15;100.00;97289.16;5090862;28;20815;-74
2022/05/18 09:05:13;;;;;;;9.47;8.67;;;;;;;20.74;100.00;97282.25;5058600;28;20437;-75
2022/05/18 09:08:08;;;;;;;9.83;8.93;;;;;;;21.14;100.00;97284.94;5069554;28;20421;-75
2022/05/18 09:10:41;;;;;;;9.33;8.63;;;;;;;21.56;97.51;97278.34;5069078;28;20500;-75
2022/05/18 09:13:07;;;;;;;10.00;9.10;;;;;;;21.90;96.24;97281.63;5069374;28;20889;-76
2022/05/18 09:15:55;;;;;;;9.27;8.37;;;;;;;22.34;96.66;97278.78;5077504;28;20530;-75
2022/05/18 09:18:28;;;;;;;9.57;8.70;;;;;;;22.17;94.11;97271.44;5070532;28;20494;-75
2022/05/18 09:20:58;;;;;;;9.00;8.30;;;;;;;22.12;93.10;97267.16;5081366;28;20443;-75
2022/05/18 09:23:34;;;;;;;7.50;6.90;;;;;;;22.54;89.82;97283.84;5073874;28;20510;-75
2022/05/18 09:26:27;;;;;;;12.80;8.40;;;;;;;22.36;88.59;97281.88;5087442;28;20482;-75
2022/05/18 09:29:16;;;;;;;7.93;7.13;;;;;;;21.65;90.71;97275.34;5062729;28;20436;-75
2022/05/18 09:31:58;;;;;;;6.83;6.23;;;;;;;22.24;89.28;97279.53;5092457;28;20508;-74
2022/05/18 09:34:43;;;;;;;7.93;7.13;;;;;;;23.05;84.02;97291.69;5074673;28;21026;-75
2022/05/18 09:37:28;;;;;;;7.23;6.63;;;;;;;22.36;81.67;97259.53;5072668;28;20482;-75
2022/05/18 09:40:16;;;;;;;8.30;7.60;;;;;;;22.09;86.08;97251.75;5072686;28;20466;-74
2022/05/18 09:42:49;;;;;;;9.17;7.23;;;;;;;21.89;87.14;97279.31;5059193;28;20540;-74
2022/05/18 09:45:22;;;;;;;9.20;8.47;;;;;;;22.42;85.52;97277.66;5081937;28;20409;-74
2022/05/18 09:47:54;;;;;;;8.93;7.93;;;;;;;21.83;86.39;97278.91;5072588;28;20515;-74
2022/05/18 09:50:21;;;;;;;8.10;7.30;;;;;;;21.50;84.77;97261.00;5072361;28;20460;-74
2022/05/18 09:52:50;;;;;;;7.70;7.17;;;;;;;21.94;83.55;97273.59;5073623;28;20470;-74
2022/05/18 09:55:23;;;;;;;8.00;7.40;;;;;;;21.65;83.31;97272.66;5072407;28;20444;-74
2022/05/18 09:58:02;;;;;;;8.47;7.83;;;;;;;22.02;86.23;97277.84;5055801;28;20459;-75
2022/05/18 10:00:33;;;;;;;7.43;6.83;;;;;;;22.80;79.85;97283.53;5072237;28;20830;-75
2022/05/18 10:09:13;;;;;;;7.90;7.20;;;;;;;22.83;78.11;97272.00;5075922;28;20468;-76
2022/05/18 10:11:41;;;;;;;7.07;6.40;;;;;;;22.93;79.26;97254.28;5069924;28;20464;-75
2022/05/18 10:14:16;;;;;;;7.80;7.20;;;;;;;23.15;76.09;97253.16;5092113;28;20803;-75
2022/05/18 10:16:47;;;;;;;7.77;7.20;;;;;;;22.73;76.98;97264.66;5075968;28;21046;-75
2022/05/18 10:19:21;;;;;;;7.73;7.13;;;;;;;23.41;76.99;97270.13;5072204;28;20960;-74
2022/05/18 10:21:52;;;;;;;8.43;7.53;;;;;;;23.41;72.31;97243.88;5055441;28;20551;-74
2022/05/18 10:24:24;;;;;;;8.50;7.73;;;;;;;23.59;71.70;97268.94;5072096;28;20531;-74
2022/05/18 10:27:18;;;;;;;7.80;7.20;;;;;;;23.10;74.44;97260.84;5073334;28;20420;-74
2022/05/18 10:30:10;;;;;;;7.50;6.90;;;;;;;23.19;74.87;97266.63;5055035;28;20464;-74
2022/05/18 10:32:52;;;;;;;7.87;7.17;;;;;;;23.27;75.56;97265.50;5071684;28;20464;-74
2022/05/18 10:35:48;;;;;;;7.53;7.03;;;;;;;23.53;73.67;97256.97;5076510;28;20436;-74
2022/05/18 10:38:20;;;;;;;8.20;7.60;;;;;;;23.68;74.14;97254.28;5071629;28;20464;-74
2022/05/18 10:40:47;;;;;;;7.23;6.67;;;;;;;23.64;73.93;97259.69;5071800;28;20440;-74
2022/05/18 10:43:30;;;;;;;8.17;7.47;;;;;;;24.03;71.27;97264.97;5072936;28;20427;-74
2022/05/18 10:46:26;;;;;;;7.80;7.00;;;;;;;23.54;73.38;97253.13;5071453;28;20826;-75
2022/05/18 10:48:57;;;;;;;7.53;6.53;;;;;;;23.00;72.98;97247.00;5072959;28;20460;-75
2022/05/18 10:51:44;;;;;;;7.97;7.27;;;;;;;23.10;72.97;97256.22;5058826;28;21008;-74
2022/05/18 10:54:16;;;;;;;7.50;7.00;;;;;;;23.59;71.87;97249.28;5071496;28;20425;-75
2022/05/18 10:56:44;;;;;;;6.60;6.00;;;;;;;24.10;69.90;97251.44;5071772;28;20444;-74
2022/05/18 10:59:18;;;;;;;7.70;7.10;;;;;;;23.54;69.84;97241.56;5088153;28;20540;-74
2022/05/18 11:01:57;;;;;;;6.80;6.20;;;;;;;24.44;66.26;97259.06;5071323;28;20485;-74
2022/05/18 11:04:44;;;;;;;6.93;6.53;;;;;;;24.51;66.72;97260.94;5043321;28;20451;-75
2022/05/18 11:07:10;;;;;;;7.57;6.53;;;;;;;24.51;66.70;97237.38;5051242;28;20441;-75
2022/05/18 11:09:41;;;;;;;6.40;5.90;;;;;;;25.10;65.40;97223.84;5063994;28;20424;-75
2022/05/18 11:12:23;;;;;;;5.13;4.10;;;;;;;24.84;61.14;97248.75;5072272;28;20513;-75
2022/05/18 11:14:59;;;;;;;5.60;4.57;;;;;;;24.89;61.04;97248.34;5081186;28;20459;-74
2022/05/18 11:17:58;;;;;;;7.50;5.77;;;;;;;25.41;59.93;97240.22;5071228;28;20494;-75
2022/05/18 11:20:36;;;;;;;6.13;5.60;;;;;;;25.00;59.49;97240.91;5070907;28;20453;-75
2022/05/18 11:23:17;;;;;;;5.63;5.13;;;;;;;25.17;58.43;97217.59;5071364;28;20454;-75
2022/05/18 11:26:14;;;;;;;9.00;6.13;;;;;;;25.75;58.86;97240.28;5091012;28;20530;-74
2022/05/18 11:29:36;;;;;;;5.77;5.33;;;;;;;25.12;58.29;97245.88;5077315;28;20439;-75
2022/05/18 11:32:26;;;;;;;5.80;4.67;;;;;;;24.80;58.63;97248.00;5083167;28;20506;-75
2022/05/18 11:35:20;;;;;;;5.23;4.83;;;;;;;24.26;58.08;97215.84;5087749;28;20926;-75
2022/05/18 11:38:17;;;;;;;5.33;4.93;;;;;;;24.54;58.98;97227.69;5072386;28;20493;-74
2022/05/18 11:40:50;;;;;;;5.30;4.77;;;;;;;24.77;57.66;97230.66;5091018;28;20419;-74
2022/05/18 11:43:41;;;;;;;5.70;5.20;;;;;;;25.53;57.12;97226.94;5057736;28;20429;-74
2022/05/18 11:46:38;;;;;;;5.03;4.63;;;;;;;25.76;55.26;97233.69;5070743;28;20421;-74
2022/05/18 11:49:17;;;;;;;5.27;4.87;;;;;;;25.66;53.90;97223.72;5072134;28;20427;-75
2022/05/18 11:52:15;;;;;;;5.23;4.73;;;;;;;25.76;54.52;97228.25;5070814;28;20476;-76
2022/05/18 11:54:48;;;;;;;5.70;5.20;;;;;;;26.22;53.99;97225.78;5043993;28;20429;-75